Hurlburt Field, FL

6:33 PM CST on February 14, 2016 (GMT -0600)
Hurlburt | | Change Station
CLOSE
Current Station
Airport
Location: Hurlburt Field,
Elevation: 39 ft
Nearby Weather Stations

Elev 39 ft 30.43 °N, 86.69 °W | Updated 35 minutes ago

Clear
Clear
55 °F
Feels Like 55 °F
N
5
Wind Variable Wind from SE

Today
High -- | Low -- °F
--% Chance of Precip.
Yesterday
High -- | Low -- °F
Precip. -- in
Pressure 30.20 in
Visibility 10.0 miles
Clouds Clear
Dew Point 39 °F
Humidity 53%
Rainfall 0.00 in
Snow Depth Not available.
6:28 AM 5:33 PM
Waxing Crescent, 47% visible
METAR KHRT 142358Z AUTO 13004KT 10SM CLR 13/04 A3019 RMK AO2 SLP225 60000 T01300037 10143 20126 53003 $
Pressure 30.20 in
Visibility 10.0 miles
Clouds Clear
Dew Point 39 °F
Humidity 53%
Rainfall 0.00 in
Snow Depth Not available.
6:28 AM 5:33 PM
Waxing Crescent, 47% visible
METAR KHRT 142358Z AUTO 13004KT 10SM CLR 13/04 A3019 RMK AO2 SLP225 60000 T01300037 10143 20126 53003 $

10-Day Weather Forecast

Almanac

Astronomy

Feb. 14, 2016 Rise Set
Actual Time
Civil Twilight
Nautical Twilight
Astronomical Twilight
Moon
Length of Visible Light
Length of Day
Tomorrow will be .
, % of the Moon is Illuminated

Today's Extremes

State Highs State Lows

Community

WunderPhotos

Upload Photos

1,892,950 photos uploaded!

WunderBlog® & News

Nearby

Air Quality

  Air Quality AQ Index Pollutant
Not available.

Snow Depth

Station Depth Elevation

Earthquake Activity

City Distance Mag. Time & Date
Minimum magnitude displayed is 2.5.

Coastal Water Temperatures

Place Temperature

Stations

Nearby Weather Stations

Station Location Temp. Windchill Dew Point Humidity Wind Precip. Elev Updated Type
                   

Watches & Warnings

There are currently no watches in effect.